createdAt,value
2019-02-19T00:01:20.825Z,1.00
2019-02-19T00:03:51.659Z,1.00
2019-02-19T00:06:22.522Z,1.10
2019-02-19T00:08:53.432Z,1.20
2019-02-19T00:11:24.268Z,1.20
2019-02-19T00:13:55.213Z,1.10
2019-02-19T00:16:26.143Z,1.10
2019-02-19T00:18:57.974Z,1.10
2019-02-19T00:21:28.912Z,1.10
2019-02-19T00:23:59.878Z,1.10
2019-02-19T00:26:31.230Z,1.10
2019-02-19T00:29:03.496Z,1.10
2019-02-19T00:31:34.433Z,1.10
2019-02-19T00:34:05.345Z,1.00
2019-02-19T00:36:36.310Z,1.00
2019-02-19T00:39:08.375Z,1.00
2019-02-19T00:41:39.825Z,0.90
2019-02-19T00:44:10.765Z,0.90
2019-02-19T00:46:41.700Z,1.00
2019-02-19T00:49:13.030Z,1.00
2019-02-19T00:51:43.883Z,1.00
2019-02-19T00:54:14.823Z,1.00
2019-02-19T00:56:45.656Z,0.90
2019-02-19T00:59:16.494Z,1.00
2019-02-19T01:01:47.431Z,0.90
2019-02-19T01:04:18.347Z,0.90
2019-02-19T01:06:50.511Z,0.80
2019-02-19T01:09:22.085Z,0.90
2019-02-19T01:11:53.962Z,1.00
2019-02-19T01:14:24.782Z,0.90
2019-02-19T01:16:57.048Z,0.90
2019-02-19T01:19:27.986Z,0.90
2019-02-19T01:21:58.823Z,1.00
2019-02-19T01:24:29.760Z,0.90
2019-02-19T01:27:00.670Z,0.80
2019-02-19T01:29:31.820Z,0.90
2019-02-19T01:32:02.782Z,0.90
2019-02-19T01:34:33.718Z,0.60
2019-02-19T01:37:04.659Z,0.60
2019-02-19T01:39:35.495Z,0.60
2019-02-19T01:42:06.433Z,0.60
2019-02-19T01:44:38.292Z,0.60
2019-02-19T01:47:09.131Z,0.70
2019-02-19T01:49:39.962Z,0.70
2019-02-19T01:52:10.869Z,0.80
2019-02-19T01:54:42.837Z,0.80
2019-02-19T01:57:13.694Z,0.80
2019-02-19T01:59:45.648Z,0.80
2019-02-19T02:02:16.596Z,0.90
2019-02-19T02:04:48.132Z,0.80
2019-02-19T02:07:19.089Z,0.80
2019-02-19T02:09:49.926Z,0.70
2019-02-19T02:12:20.704Z,0.80
2019-02-19T02:14:51.969Z,0.80
2019-02-19T02:17:22.945Z,0.80
2019-02-19T02:19:53.779Z,0.60
2019-02-19T02:22:24.612Z,0.70
2019-02-19T02:24:55.757Z,0.60
2019-02-19T02:27:26.592Z,0.70
2019-02-19T02:29:57.428Z,0.60
2019-02-19T02:32:28.261Z,0.70
2019-02-19T02:34:59.406Z,0.50
2019-02-19T02:37:30.311Z,0.60
2019-02-19T02:40:01.178Z,0.50
2019-02-19T02:42:32.089Z,0.50
2019-02-19T02:45:04.980Z,0.60
2019-02-19T02:47:35.545Z,0.60
2019-02-19T02:50:06.855Z,0.60
2019-02-19T02:52:37.820Z,0.50
2019-02-19T02:55:09.886Z,0.40
2019-02-19T02:57:40.715Z,0.40
2019-02-19T03:00:12.987Z,0.50
2019-02-19T03:02:46.935Z,0.40
2019-02-19T03:05:20.173Z,0.40
2019-02-19T03:07:52.764Z,0.40
2019-02-19T03:10:23.606Z,0.50
2019-02-19T03:12:54.342Z,0.50
2019-02-19T03:15:26.804Z,0.50
2019-02-19T03:17:57.651Z,0.50
2019-02-19T03:20:28.550Z,0.50
2019-02-19T03:23:01.337Z,0.50
2019-02-19T03:25:34.526Z,0.60
2019-02-19T03:28:05.484Z,0.70
2019-02-19T03:30:36.290Z,0.50
2019-02-19T03:33:07.367Z,0.50
2019-02-19T03:35:39.299Z,0.50
2019-02-19T03:38:10.251Z,0.50
2019-02-19T03:40:41.204Z,0.50
2019-02-19T03:43:13.836Z,0.60
2019-02-19T03:45:45.638Z,0.60
2019-02-19T03:48:16.575Z,0.40
2019-02-19T03:50:47.516Z,0.50
2019-02-19T03:53:20.091Z,0.60
2019-02-19T03:55:51.929Z,0.80
2019-02-19T03:58:22.781Z,0.70
2019-02-19T04:00:53.720Z,0.50
2019-02-19T04:03:24.768Z,0.60
2019-02-19T04:05:55.597Z,0.60
2019-02-19T04:08:26.502Z,0.70
2019-02-19T04:10:57.369Z,0.70
2019-02-19T04:13:28.207Z,0.70
2019-02-19T04:15:59.143Z,0.80
2019-02-19T04:18:30.063Z,0.90
2019-02-19T04:21:00.898Z,1.10
2019-02-19T04:23:32.063Z,1.50
2019-02-19T04:26:02.913Z,1.70
2019-02-19T04:28:33.732Z,1.90
2019-02-19T04:31:04.570Z,2.00
2019-02-19T04:33:36.092Z,2.30
2019-02-19T04:36:06.957Z,2.30
2019-02-19T04:38:37.808Z,2.50
2019-02-19T04:41:08.831Z,3.00
2019-02-19T04:43:40.452Z,3.50
2019-02-19T04:46:11.321Z,3.40
2019-02-19T04:48:43.216Z,3.50
2019-02-19T04:51:14.121Z,3.30
2019-02-19T04:53:45.776Z,3.30
2019-02-19T04:56:16.608Z,3.50
2019-02-19T04:58:47.448Z,3.70
2019-02-19T05:01:18.292Z,3.90
2019-02-19T05:03:49.632Z,4.00
2019-02-19T05:06:20.466Z,4.00
2019-02-19T05:08:51.306Z,4.10
2019-02-19T05:11:22.136Z,4.00
2019-02-19T05:13:53.073Z,3.90
2019-02-19T05:16:23.955Z,3.90
2019-02-19T05:18:54.817Z,3.60
2019-02-19T05:21:25.783Z,3.40
2019-02-19T05:23:59.877Z,3.60
2019-02-19T05:26:30.807Z,3.80
2019-02-19T05:29:03.012Z,4.20
2019-02-19T05:31:33.914Z,3.90
2019-02-19T05:34:06.293Z,4.00
2019-02-19T05:36:37.105Z,4.20
2019-02-19T05:39:08.070Z,4.30
2019-02-19T05:41:41.745Z,4.40
2019-02-19T05:44:16.322Z,4.30
2019-02-19T05:46:49.941Z,4.30
2019-02-19T05:49:20.135Z,4.10
2019-02-19T05:51:51.072Z,4.00
2019-02-19T05:54:21.990Z,3.90
2019-02-19T05:56:52.952Z,4.10
2019-02-19T05:59:23.858Z,4.20
2019-02-19T06:01:56.428Z,4.20
2019-02-19T06:04:27.397Z,4.30
2019-02-19T06:07:00.512Z,4.10
2019-02-19T06:09:31.702Z,4.00
2019-02-19T06:12:02.670Z,4.00
2019-02-19T06:14:34.922Z,3.90
2019-02-19T06:17:05.849Z,3.90
2019-02-19T06:19:36.873Z,3.80
2019-02-19T06:22:07.860Z,3.80
2019-02-19T06:24:39.739Z,3.70
2019-02-19T06:27:10.656Z,4.10
2019-02-19T06:29:41.579Z,4.10
2019-02-19T06:32:12.406Z,4.40
2019-02-19T06:34:43.882Z,4.50
2019-02-19T06:37:14.716Z,4.60
2019-02-19T06:39:45.456Z,4.60
2019-02-19T06:42:16.317Z,4.50
2019-02-19T06:44:48.143Z,4.50
2019-02-19T06:47:19.049Z,4.50
2019-02-19T06:49:49.896Z,4.50
2019-02-19T06:52:20.826Z,4.50
2019-02-19T06:54:53.131Z,4.80
2019-02-19T06:57:24.060Z,4.90
2019-02-19T06:59:54.978Z,5.10
2019-02-19T07:02:39.558Z,4.90
2019-02-19T07:05:13.365Z,4.80
2019-02-19T07:07:44.301Z,4.80
2019-02-19T07:10:15.114Z,4.80
2019-02-19T07:12:46.075Z,4.80
2019-02-19T07:15:18.010Z,4.80
2019-02-19T07:17:48.872Z,4.80
2019-02-19T07:20:19.778Z,4.80
2019-02-19T07:22:51.770Z,5.00
2019-02-19T07:25:23.426Z,5.20
2019-02-19T07:27:55.358Z,5.10
2019-02-19T07:30:26.223Z,5.30
2019-02-19T07:32:57.029Z,5.50
2019-02-19T07:35:28.594Z,5.50
2019-02-19T07:37:59.553Z,5.60
2019-02-19T07:40:30.490Z,5.80
2019-02-19T07:43:02.349Z,5.90
2019-02-19T07:45:33.697Z,5.90
2019-02-19T07:48:04.474Z,6.00
2019-02-19T07:50:35.454Z,6.10
2019-02-19T07:53:06.717Z,6.00
2019-02-19T07:55:37.857Z,6.20
2019-02-19T07:58:08.772Z,6.30
2019-02-19T08:00:40.609Z,6.40
2019-02-19T08:03:12.720Z,6.50
2019-02-19T08:05:43.630Z,6.60
2019-02-19T08:08:14.494Z,6.60
2019-02-19T08:10:45.330Z,6.60
2019-02-19T08:13:16.269Z,6.60
2019-02-19T08:15:47.613Z,6.80
2019-02-19T08:18:18.451Z,6.90
2019-02-19T08:20:49.258Z,7.00
2019-02-19T08:23:21.942Z,7.10
2019-02-19T08:25:54.307Z,7.20
2019-02-19T08:28:25.248Z,7.30
2019-02-19T08:30:56.108Z,7.40
2019-02-19T08:33:28.627Z,7.50
2019-02-19T08:36:00.958Z,7.70
2019-02-19T08:38:31.867Z,7.90
2019-02-19T08:41:02.743Z,8.30
2019-02-19T08:43:33.573Z,8.30
2019-02-19T08:46:05.132Z,8.60
2019-02-19T08:48:36.062Z,8.80
2019-02-19T08:51:07.307Z,8.60
2019-02-19T08:53:38.241Z,8.50
2019-02-19T08:56:09.381Z,8.50
2019-02-19T08:58:40.322Z,8.50
2019-02-19T09:01:11.144Z,8.50
2019-02-19T09:03:42.069Z,8.40
2019-02-19T09:06:13.102Z,8.50
2019-02-19T09:08:44.074Z,8.40
2019-02-19T09:11:14.987Z,8.60
2019-02-19T09:13:45.948Z,8.60
2019-02-19T09:16:17.994Z,8.60
2019-02-19T09:18:48.950Z,8.60
2019-02-19T09:21:20.898Z,8.40
2019-02-19T09:23:51.733Z,8.40
2019-02-19T09:26:25.046Z,8.30
2019-02-19T09:28:55.881Z,8.30
2019-02-19T09:31:26.693Z,8.30
2019-02-19T09:33:57.659Z,8.40
2019-02-19T09:36:29.490Z,8.40
2019-02-19T09:39:00.331Z,8.50
2019-02-19T09:41:32.794Z,8.50
2019-02-19T09:44:03.736Z,8.70
2019-02-19T09:46:35.409Z,9.10
2019-02-19T09:49:06.250Z,9.40
2019-02-19T09:51:37.159Z,9.50
2019-02-19T09:54:08.127Z,9.50
2019-02-19T09:56:39.068Z,9.40
2019-02-19T09:59:10.845Z,9.20
2019-02-19T10:01:41.865Z,9.00
2019-02-19T10:04:13.726Z,9.00
2019-02-19T10:06:45.662Z,8.90
2019-02-19T10:09:17.546Z,9.00
2019-02-19T10:11:48.484Z,8.90
2019-02-19T10:14:19.423Z,9.00
2019-02-19T10:16:51.457Z,9.00
2019-02-19T10:19:22.425Z,9.00
2019-02-19T10:21:53.330Z,9.20
2019-02-19T10:24:24.307Z,9.30
2019-02-19T10:26:56.466Z,9.40
2019-02-19T10:29:27.375Z,9.70
2019-02-19T10:31:59.264Z,9.80
2019-02-19T10:34:30.253Z,9.80
2019-02-19T10:37:02.270Z,9.90
2019-02-19T10:39:33.105Z,9.90
2019-02-19T10:42:04.054Z,10.10
2019-02-19T10:44:34.965Z,10.20
2019-02-19T10:47:06.635Z,10.20
2019-02-19T10:49:38.582Z,10.30
2019-02-19T10:52:09.519Z,10.20
2019-02-19T10:54:40.475Z,10.10
2019-02-19T10:57:12.956Z,10.10
2019-02-19T10:59:43.887Z,9.90
2019-02-19T11:02:15.003Z,9.80
2019-02-19T11:04:46.229Z,9.70
2019-02-19T11:07:17.718Z,9.70
2019-02-19T11:09:49.141Z,9.70
2019-02-19T11:12:20.667Z,9.70
2019-02-19T11:14:51.943Z,9.90
2019-02-19T11:17:24.699Z,10.20
2019-02-19T11:19:55.848Z,10.30
2019-02-19T11:22:27.685Z,10.30
2019-02-19T11:24:59.043Z,10.20
2019-02-19T11:27:31.717Z,10.40
2019-02-19T11:30:03.209Z,10.60
2019-02-19T11:32:35.223Z,10.90
2019-02-19T11:35:08.388Z,11.00
2019-02-19T11:37:41.377Z,11.10
2019-02-19T11:40:13.724Z,11.20
2019-02-19T11:42:44.582Z,11.30
2019-02-19T11:45:16.763Z,11.20
2019-02-19T11:47:49.475Z,11.60
2019-02-19T11:50:20.819Z,11.90
2019-02-19T11:52:52.160Z,11.90
2019-02-19T11:55:23.167Z,11.90
2019-02-19T11:57:54.920Z,12.00
2019-02-19T12:00:36.756Z,12.10
2019-02-19T12:03:07.924Z,12.30
2019-02-19T12:05:39.535Z,12.60
2019-02-19T12:08:11.136Z,12.10
2019-02-19T12:10:42.773Z,11.50
2019-02-19T12:13:14.160Z,11.10
2019-02-19T12:15:45.430Z,11.20
2019-02-19T12:18:16.698Z,11.50
2019-02-19T12:20:47.903Z,11.80
2019-02-19T12:23:19.544Z,11.50
2019-02-19T12:25:51.255Z,11.60
2019-02-19T12:28:23.188Z,11.90
2019-02-19T12:30:55.781Z,11.90
2019-02-19T12:33:27.226Z,12.10
2019-02-19T12:35:58.657Z,12.20
2019-02-19T12:38:30.272Z,11.80
2019-02-19T12:41:01.412Z,11.50
2019-02-19T12:43:32.695Z,11.30
2019-02-19T12:46:04.880Z,11.10
2019-02-19T12:48:36.559Z,10.80
2019-02-19T12:51:07.871Z,10.90
2019-02-19T12:53:39.110Z,10.80
2019-02-19T12:56:11.700Z,10.70
2019-02-19T12:58:43.102Z,10.60
2019-02-19T13:01:16.073Z,10.50
2019-02-19T13:03:48.058Z,10.60
2019-02-19T13:06:20.594Z,10.70
2019-02-19T13:08:52.297Z,10.80
2019-02-19T13:11:23.976Z,11.00
2019-02-19T13:13:55.456Z,11.10
2019-02-19T13:16:26.978Z,11.30
2019-02-19T13:19:03.607Z,12.20
2019-02-19T13:21:31.087Z,12.40
2019-02-19T13:24:02.441Z,12.20
2019-02-19T13:26:34.428Z,11.90
2019-02-19T13:29:05.326Z,11.50
2019-02-19T13:31:36.442Z,11.30
2019-02-19T13:34:07.733Z,11.00
2019-02-19T13:36:40.677Z,11.40
2019-02-19T13:39:12.130Z,11.30
2019-02-19T13:41:43.795Z,11.80
2019-02-19T13:44:15.080Z,12.50
2019-02-19T13:46:48.844Z,13.70
2019-02-19T13:49:20.270Z,13.70
2019-02-19T13:51:53.630Z,12.90
2019-02-19T13:54:25.887Z,12.00
2019-02-19T13:56:58.083Z,11.70
2019-02-19T13:59:30.494Z,11.10
2019-02-19T14:02:01.705Z,10.70
2019-02-19T14:04:33.131Z,10.70
2019-02-19T14:07:04.366Z,10.50
2019-02-19T14:09:35.650Z,10.50
2019-02-19T14:12:07.894Z,10.50
2019-02-19T14:14:49.477Z,10.40
2019-02-19T14:17:20.805Z,10.40
2019-02-19T14:19:53.703Z,10.30
2019-02-19T14:22:42.440Z,10.30
2019-02-19T14:25:19.142Z,10.20
2019-02-19T14:27:52.229Z,10.30
2019-02-19T14:30:25.829Z,10.20
2019-02-19T14:33:01.888Z,10.20
2019-02-19T14:35:37.543Z,10.20
2019-02-19T14:38:26.915Z,10.20
2019-02-19T14:41:05.941Z,10.20
2019-02-19T14:43:38.818Z,10.10
2019-02-19T14:46:11.453Z,10.10
2019-02-19T14:48:59.213Z,9.90
2019-02-19T14:51:32.055Z,9.80
2019-02-19T14:54:20.552Z,9.70
2019-02-19T14:56:55.910Z,9.70
2019-02-19T14:59:34.756Z,9.60
2019-02-19T15:02:10.274Z,9.50
2019-02-19T15:05:01.209Z,9.50
2019-02-19T15:07:36.828Z,9.40
2019-02-19T15:10:17.192Z,9.30
2019-02-19T15:12:49.874Z,9.20
2019-02-19T15:15:25.207Z,9.20
2019-02-19T15:18:00.651Z,9.20
2019-02-19T15:20:40.480Z,9.10
2019-02-19T15:23:25.671Z,9.00
2019-02-19T15:26:04.459Z,9.10
2019-02-19T15:28:40.653Z,9.00
2019-02-19T15:31:30.204Z,9.00
2019-02-19T15:34:03.324Z,8.90
2019-02-19T15:36:42.076Z,8.90
2019-02-19T15:39:15.850Z,8.90
2019-02-19T15:42:05.110Z,8.90
2019-02-19T15:44:41.037Z,9.00
2019-02-19T15:47:29.113Z,8.90
2019-02-19T15:50:17.449Z,8.80
2019-02-19T15:52:56.578Z,8.80
2019-02-19T15:55:29.703Z,8.70
2019-02-19T15:58:21.117Z,8.70
2019-02-19T16:01:10.354Z,8.70
2019-02-19T16:03:43.225Z,8.60
2019-02-19T16:06:17.248Z,8.60
2019-02-19T16:08:53.308Z,8.60
2019-02-19T16:11:27.527Z,8.60
2019-02-19T16:14:00.417Z,8.50
2019-02-19T16:16:39.750Z,8.50
2019-02-19T16:19:22.149Z,8.60
2019-02-19T16:21:54.948Z,8.50
2019-02-19T16:24:30.792Z,8.60
2019-02-19T16:27:20.263Z,8.50
2019-02-19T16:30:02.255Z,8.60
2019-02-19T16:32:53.363Z,8.50
2019-02-19T16:35:38.554Z,8.40
2019-02-19T16:38:11.695Z,8.30
2019-02-19T16:40:44.301Z,8.20
2019-02-19T16:43:18.691Z,8.30
2019-02-19T16:45:55.704Z,8.30
2019-02-19T16:48:28.869Z,8.30
2019-02-19T16:51:16.387Z,8.20
2019-02-19T16:53:49.203Z,8.20
2019-02-19T16:56:40.319Z,8.20
2019-02-19T16:59:26.953Z,8.10
2019-02-19T17:02:08.593Z,8.20
2019-02-19T17:04:44.160Z,8.20
2019-02-19T17:07:16.935Z,8.20
2019-02-19T17:09:56.247Z,8.10
2019-02-19T17:12:38.476Z,8.10
2019-02-19T17:15:12.175Z,8.10
2019-02-19T17:17:54.591Z,8.10
2019-02-19T17:20:30.454Z,8.10
2019-02-19T17:23:07.098Z,8.00
2019-02-19T17:25:41.837Z,8.10
2019-02-19T17:28:14.514Z,8.10
2019-02-19T17:30:50.370Z,8.10
2019-02-19T17:33:28.042Z,8.10
2019-02-19T17:36:03.102Z,8.00
2019-02-19T17:38:35.837Z,8.00
2019-02-19T17:41:08.869Z,8.00
2019-02-19T17:43:48.240Z,8.00
2019-02-19T17:46:21.708Z,8.00
2019-02-19T17:49:09.843Z,8.00
2019-02-19T17:51:44.468Z,7.90
2019-02-19T17:54:23.496Z,7.90
2019-02-19T17:57:09.005Z,8.00
2019-02-19T17:59:59.982Z,7.90
2019-02-19T18:02:35.943Z,7.90
2019-02-19T18:05:09.742Z,8.00
2019-02-19T18:07:43.768Z,7.90
2019-02-19T18:10:33.465Z,7.90
2019-02-19T18:13:22.504Z,8.00
2019-02-19T18:15:57.626Z,7.90
2019-02-19T18:18:37.183Z,7.90
2019-02-19T18:21:09.956Z,7.80
2019-02-19T18:23:43.787Z,7.80
2019-02-19T18:26:15.855Z,7.80
2019-02-19T18:28:48.131Z,7.90
2019-02-19T18:31:20.482Z,7.80
2019-02-19T18:33:53.727Z,7.80
2019-02-19T18:36:25.928Z,7.80
2019-02-19T18:38:58.326Z,7.70
2019-02-19T18:41:30.661Z,7.60
2019-02-19T18:44:04.292Z,7.50
2019-02-19T18:46:36.649Z,7.40
2019-02-19T18:49:09.245Z,7.40
2019-02-19T18:51:41.959Z,7.40
2019-02-19T18:54:14.992Z,7.50
2019-02-19T18:56:47.690Z,7.70
2019-02-19T18:59:20.130Z,7.80
2019-02-19T19:01:52.834Z,7.70
2019-02-19T19:04:26.370Z,7.70
2019-02-19T19:06:58.567Z,7.70
2019-02-19T19:09:31.102Z,7.70
2019-02-19T19:12:03.641Z,7.50
2019-02-19T19:14:37.683Z,7.30
2019-02-19T19:17:10.495Z,7.10
2019-02-19T19:19:42.855Z,7.00
2019-02-19T19:22:15.670Z,6.80
2019-02-19T19:24:48.331Z,6.80
2019-02-19T19:27:20.888Z,6.70
2019-02-19T19:29:55.066Z,6.60
2019-02-19T19:32:28.653Z,6.60
2019-02-19T19:35:01.660Z,6.60
2019-02-19T19:37:34.209Z,6.60
2019-02-19T19:40:13.189Z,6.50
2019-02-19T19:42:46.083Z,6.40
2019-02-19T19:45:18.726Z,6.40
2019-02-19T19:47:51.240Z,6.40
2019-02-19T19:50:25.186Z,6.40
2019-02-19T19:52:58.647Z,6.40
2019-02-19T19:55:33.618Z,6.40
2019-02-19T19:58:07.350Z,6.20
2019-02-19T20:00:40.015Z,6.20
2019-02-19T20:03:12.965Z,6.20
2019-02-19T20:05:46.758Z,6.10
2019-02-19T20:08:21.984Z,6.00
2019-02-19T20:10:54.773Z,5.90
2019-02-19T20:13:27.404Z,5.80
2019-02-19T20:16:01.840Z,5.60
2019-02-19T20:18:39.194Z,5.60
2019-02-19T20:21:10.570Z,5.60
2019-02-19T20:23:44.790Z,5.60
2019-02-19T20:26:19.083Z,5.70
2019-02-19T20:28:51.648Z,5.90
2019-02-19T20:31:27.266Z,5.90
2019-02-19T20:33:59.680Z,6.00
2019-02-19T20:36:34.320Z,6.10
2019-02-19T20:39:07.677Z,6.10
2019-02-19T20:41:42.062Z,6.00
2019-02-19T20:44:16.345Z,6.00
2019-02-19T20:46:51.054Z,5.80
2019-02-19T20:49:24.624Z,5.70
2019-02-19T20:51:57.217Z,5.70
2019-02-19T20:54:29.767Z,5.70
2019-02-19T20:57:03.291Z,5.70
2019-02-19T20:59:35.556Z,5.60
2019-02-19T21:02:07.749Z,5.50
2019-02-19T21:04:40.434Z,5.40
2019-02-19T21:07:13.050Z,5.10
2019-02-19T21:09:45.042Z,4.90
2019-02-19T21:12:16.631Z,4.70
2019-02-19T21:17:19.922Z,4.50
2019-02-19T21:19:51.111Z,4.40
2019-02-19T21:22:23.844Z,4.30
2019-02-19T21:24:55.371Z,4.20
2019-02-19T21:27:27.020Z,4.10
2019-02-19T21:29:58.411Z,4.10
2019-02-19T21:32:29.863Z,4.00
2019-02-19T21:35:02.533Z,4.10
2019-02-19T21:37:35.035Z,4.20
2019-02-19T21:40:13.754Z,4.10
2019-02-19T21:42:44.977Z,4.00
2019-02-19T21:45:16.965Z,4.00
2019-02-19T21:47:49.515Z,4.00
2019-02-19T21:50:20.781Z,4.00
2019-02-19T21:52:52.256Z,4.10
2019-02-19T21:55:23.664Z,4.20
2019-02-19T21:57:56.641Z,4.30
2019-02-19T22:00:28.325Z,4.30
2019-02-19T22:03:00.115Z,4.40
2019-02-19T22:05:31.815Z,4.40
2019-02-19T22:08:03.078Z,4.50
2019-02-19T22:10:35.548Z,4.40
2019-02-19T22:13:06.810Z,4.40
2019-02-19T22:15:39.147Z,4.40
2019-02-19T22:18:10.802Z,4.40
2019-02-19T22:20:44.502Z,4.40
2019-02-19T22:23:16.041Z,4.30
2019-02-19T22:25:51.459Z,4.30
2019-02-19T22:28:23.026Z,4.30
2019-02-19T22:30:54.548Z,4.40
2019-02-19T22:33:25.872Z,4.40
2019-02-19T22:35:57.332Z,4.60
2019-02-19T22:38:29.620Z,4.60
2019-02-19T22:41:01.345Z,4.70
2019-02-19T22:47:18.025Z,4.70
2019-02-19T22:50:08.376Z,4.80
2019-02-19T22:53:12.571Z,4.90
2019-02-19T22:56:10.436Z,5.00
2019-02-19T22:58:59.598Z,5.00
2019-02-19T23:01:43.892Z,5.10
2019-02-19T23:04:25.256Z,5.20
2019-02-19T23:07:10.257Z,5.30
2019-02-19T23:10:11.388Z,5.30
2019-02-19T23:12:35.844Z,5.30
2019-02-19T23:15:11.175Z,5.40
2019-02-19T23:17:42.090Z,5.50
2019-02-19T23:20:13.057Z,5.50
2019-02-19T23:22:44.400Z,5.50
2019-02-19T23:25:15.821Z,5.50
2019-02-19T23:27:47.197Z,5.40
2019-02-19T23:30:19.463Z,5.40
2019-02-19T23:32:52.025Z,5.40
2019-02-19T23:35:39.951Z,5.40
2019-02-19T23:38:12.541Z,5.30
2019-02-19T23:40:43.874Z,5.20
2019-02-19T23:43:15.350Z,5.30
2019-02-19T23:45:46.852Z,5.20
2019-02-19T23:48:18.296Z,5.20
2019-02-19T23:50:49.637Z,5.20
2019-02-19T23:53:23.389Z,5.20
2019-02-19T23:55:54.551Z,5.30
2019-02-19T23:58:26.059Z,5.30
